Flight Track Log - Related Links

Times and Time Zones

All times are in EDT time to prevent confusion due to time zone crossing. See the UAL3821 flight status page for this flight to view local times or setup timezone preferences in your user account.

Time Position Orientation Groundspeed Altitude Reporting Facility
EDT Latitude Longitude Course Direction KTS MPH feet Rate Location/Type
Mon 10:53:51 AM 40.7167 -74.1500 323° Northwest 158 182 1,900  Level New York TRACON
Mon 10:54:52 AM 40.7667 -74.1000 37° Northeast 227 261 3,300 1,686 Climbing New York TRACON
Mon 10:55:52 AM 40.8167 -74.1500 323° Northwest 274 315 5,300 2,200 Climbing New York TRACON
Mon 10:56:52 AM 40.8333 -74.2500 282° West 280 322 7,700 2,000 Climbing New York TRACON
Mon 10:57:52 AM 40.8667 -74.3333 298° West 280 322 9,300 1,608 Climbing New York TRACON
Mon 10:58:00 AM 41.1333 -74.6980 270° West  Level FlightAware Approximate
Mon 10:58:29 AM 40.9042 -74.3842 314° West 286 329 10,300  Level New York Center
Mon 10:59:00 AM 41.1804 -74.8137 323° Northwest  Level FlightAware Approximate
Mon 10:59:29 AM 40.9561 -74.4583 313° West 337 388 11,000  Level New York Center
Mon 11:00:29 AM 41.0283 -74.5503 316° Northwest 337 388 12,400 1,475 Climbing New York Center
Mon 11:01:27 AM 41.0961 -74.6422 314° West 345 397 13,900 1,261 Climbing New York Center
Mon 11:02:28 AM 41.1514 -74.7336 309° West 345 397 14,900 1,033 Climbing New York Center
Mon 11:03:29 AM 41.2075 -74.8581 301° West 359 413 16,000 843 Climbing New York Center
Mon 11:04:29 AM 41.2558 -74.9686 300° West 376 433 16,600 1,068 Climbing New York Center
Mon 11:05:27 AM 41.3114 -75.0964 300° West 376 433 18,100 1,169 Climbing New York Center
Mon 11:06:27 AM 41.3614 -75.2131 300° West 376 433 18,900 893 Climbing New York Center
Mon 11:07:28 AM 41.4053 -75.3181 299° West 371 427 19,900 1,082 Climbing New York Center
Mon 11:08:29 AM 41.4547 -75.4350 299° West 371 427 21,100 1,339 Climbing New York Center
Mon 11:09:29 AM 41.4978 -75.5600 295° West 371 427 22,600 1,525 Climbing New York Center
Mon 11:10:27 AM 41.5358 -75.6956 291° West 360 414 24,100 1,500 Climbing New York Center
Mon 11:11:29 AM 41.5819 -75.7906 303° West 350 403 25,600 1,240 Climbing New York Center
Mon 11:12:28 AM 41.6378 -75.8975 305° West 350 403 26,600 950 Climbing New York Center
Mon 11:13:29 AM 41.6572 -76.0239 282° West 345 397 27,500 893 Climbing New York Center
Mon 11:14:29 AM 41.6744 -76.1531 280° West 350 403 28,400 915 Climbing New York Center
Mon 11:15:27 AM 41.7019 -76.2803 286° West 355 409 29,300 915 Climbing New York Center
Mon 11:16:27 AM 41.7375 -76.4056 291° West 361 415 30,200 942 Climbing New York Center
Mon 11:17:28 AM 41.7747 -76.5450 290° West 367 422 31,200 942 Climbing New York Center
Mon 11:18:28 AM 41.8103 -76.6703 291° West 372 428 32,100 1,000 Climbing New York Center
Mon 11:19:28 AM 41.8456 -76.7961 291° West 372 428 33,200 1,231 Climbing New York Center
Mon 11:20:25 AM 41.8786 -76.9211 290° West 372 428 34,500 1,128 Climbing Cleveland Center
Mon 11:21:25 AM 41.9117 -77.0419 290° West 377 434 35,400 750 Climbing Cleveland Center
Mon 11:22:25 AM 41.9444 -77.1631 290° West 358 412 36,000 300 Climbing Cleveland Center
Mon 11:23:25 AM 41.9772 -77.2872 290° West 358 412 36,000  Level Cleveland Center
Mon 11:24:25 AM 42.0144 -77.4194 291° West 364 419 36,000  Level Cleveland Center
Mon 11:25:25 AM 42.0494 -77.5547 289° West 369 425 36,000  Level Cleveland Center
Mon 11:26:25 AM 42.0883 -77.6956 290° West 389 448 36,000  Level Cleveland Center
Mon 11:27:25 AM 42.1275 -77.8422 290° West 403 464 36,000  Level Cleveland Center
Mon 11:28:25 AM 42.1642 -77.9892 289° West 414 476 36,000  Level Cleveland Center
Mon 11:29:25 AM 42.2031 -78.1389 289° West 420 483 36,000  Level Cleveland Center
Mon 11:30:25 AM 42.2347 -78.2583 290° West 420 483 36,000  Level Cleveland Center
Mon 11:31:25 AM 42.2772 -78.4194 290° West 420 483 36,000  Level Cleveland Center
Mon 11:32:25 AM 42.3156 -78.5756 288° West 420 483 36,000  Level Cleveland Center
Mon 11:33:25 AM 42.3536 -78.7258 289° West 425 489 36,000  Level Cleveland Center
Mon 11:34:25 AM 42.3933 -78.8739 290° West 425 489 36,000  Level Cleveland Center
Mon 11:35:25 AM 42.4267 -79.0192 287° West 419 482 36,000  Level Cleveland Center
Mon 11:36:25 AM 42.4639 -79.1647 289° West 419 482 36,000  Level Cleveland Center
Mon 11:37:25 AM 42.4969 -79.3131 287° West 419 482 36,000  Level Cleveland Center
Mon 11:38:25 AM 42.5028 -79.4653 273° West 413 475 36,000  Level Cleveland Center
Mon 11:39:25 AM 42.5103 -79.6172 274° West 408 470 36,000  Level Cleveland Center
Mon 11:40:25 AM 42.5178 -79.7692 274° West 403 464 36,000  Level Cleveland Center
Mon 11:41:25 AM 42.5250 -79.9267 274° West 408 470 36,000  Level Cleveland Center
Mon 11:42:25 AM 42.5281 -80.0844 272° West 421 484 36,000  Level Cleveland Center
Mon 11:43:25 AM 42.5369 -80.2394 275° West 421 484 36,000  Level Cleveland Center
Mon 11:44:25 AM 42.5414 -80.3944 272° West 421 484 36,000  Level Cleveland Center
Mon 11:45:25 AM 42.5478 -80.5522 273° West 421 484 36,000  Level Cleveland Center
Mon 11:46:25 AM 42.5539 -80.7072 273° West 421 484 36,000  Level Cleveland Center
Mon 11:47:25 AM 42.5600 -80.8622 273° West 421 484 36,000  Level Cleveland Center
Mon 11:48:25 AM 42.5656 -81.0314 273° West 421 484 36,000  Level Cleveland Center
Mon 11:49:25 AM 42.5711 -81.1922 273° West 421 484 36,000  Level Cleveland Center
Mon 11:50:25 AM 42.5764 -81.3417 273° West 421 484 36,000  Level Cleveland Center
Mon 11:51:25 AM 42.5878 -81.4969 276° West 416 479 36,000  Level Cleveland Center
Mon 11:52:25 AM 42.6178 -81.6442 286° West 416 479 36,000  Level Cleveland Center
Mon 11:53:25 AM 42.6397 -81.7658 284° West 407 468 36,000  Level Cleveland Center
Mon 11:54:25 AM 42.6689 -81.9469 282° West 413 475 36,000  Level Cleveland Center
Mon 11:55:25 AM 42.6942 -82.0944 283° West 413 475 36,000  Level Cleveland Center
Mon 11:56:25 AM 42.7211 -82.2478 284° West 413 475 36,000  Level Cleveland Center
Mon 11:57:25 AM 42.7461 -82.3953 283° West 413 475 36,000  Level Cleveland Center
Mon 11:58:25 AM 42.7706 -82.5489 282° West 413 475 36,000  Level Cleveland Center
Mon 11:59:25 AM 42.7953 -82.6883 284° West 413 475 36,000  Level Cleveland Center
Mon 12:00:25 PM 42.8197 -82.8336 283° West 413 475 36,000  Level Cleveland Center
Mon 12:01:25 PM 42.8417 -82.9786 282° West 408 470 36,000  Level Cleveland Center
Mon 12:02:25 PM 42.8678 -83.1269 284° West 408 470 36,000  Level Cleveland Center
Mon 12:03:25 PM 42.8914 -83.2725 283° West 403 464 36,000  Level Cleveland Center
Mon 12:04:25 PM 42.9131 -83.4181 282° West 395 455 36,000  Level Cleveland Center
Mon 12:05:25 PM 42.9364 -83.5639 282° West 395 455 36,000  Level Cleveland Center
Mon 12:06:25 PM 42.9597 -83.7125 282° West 395 455 36,000  Level Cleveland Center
Mon 12:07:25 PM 42.9742 -83.8636 277° West 395 455 36,000  Level Cleveland Center
Mon 12:08:25 PM 42.9886 -84.0092 278° West 395 455 36,000  Level Cleveland Center
Mon 12:09:25 PM 43.0050 -84.1578 279° West 395 455 36,000  Level Cleveland Center
Mon 12:10:57 PM 43.0283 -84.3994 278° West 395 455 36,000  Level Chicago Center
Mon 12:11:59 PM 43.0417 -84.5458 277° West 389 448 36,000  Level Chicago Center
Mon 12:13:01 PM 43.0553 -84.6894 277° West 385 443 36,000  Level Chicago Center
Mon 12:14:03 PM 43.0678 -84.8319 277° West 380 437 36,000  Level Chicago Center
Mon 12:15:04 PM 43.0806 -84.9756 277° West 381 438 36,000 -98 Level Chicago Center
Mon 12:16:06 PM 43.0939 -85.1169 277° West 377 434 35,800 -629 Descending Chicago Center
Mon 12:17:08 PM 43.1050 -85.2589 276° West 376 433 34,700 -1,161 Descending Chicago Center
Mon 12:18:10 PM 43.1197 -85.4314 277° West 384 442 33,400 -1,306 Descending Chicago Center
Mon 12:19:12 PM 43.1325 -85.5825 277° West 398 458 32,000 -1,355 Descending Chicago Center
Mon 12:20:14 PM 43.1456 -85.7381 277° West 412 474 30,600 -1,306 Descending Chicago Center
Mon 12:21:16 PM 43.1578 -85.8833 277° West 398 458 29,300 -1,403 Descending Chicago Center
Mon 12:22:18 PM 43.1703 -86.0631 276° West 405 466 27,700 -1,463 Descending Chicago Center
Mon 12:23:19 PM 43.1672 -86.2186 269° West 418 481 26,300 -1,366 Descending Chicago Center
Mon 12:24:21 PM 43.1644 -86.3761 269° West 418 481 24,900 -1,113 Descending Chicago Center
Mon 12:25:23 PM 43.1619 -86.5336 269° West 417 480 24,000 -968 Descending Chicago Center
Mon 12:26:25 PM 43.1589 -86.6817 268° West 395 455 22,900 -1,548 Descending Chicago Center
Mon 12:27:27 PM 43.1561 -86.8603 269° West 392 451 20,800 -2,032 Descending Chicago Center
Mon 12:28:29 PM 43.1536 -87.0078 269° West 390 449 18,700 -1,935 Descending Chicago Center
Mon 12:29:31 PM 43.1492 -87.1489 268° West 378 435 16,800 -2,032 Descending Chicago Center
Mon 12:30:33 PM 43.1467 -87.2811 269° West 354 407 14,500 -2,081 Descending Chicago Center
Mon 12:31:35 PM 43.1469 -87.4153 270° West 339 390 12,500 -1,694 Descending Chicago Center
Mon 12:32:37 PM 43.1478 -87.5361 271° West 320 368 11,000 -1,210 Descending Chicago Center
Mon 12:33:39 PM 43.1214 -87.6456 252° West 305 351 10,000 -1,161 Descending Chicago Center
Mon 12:34:41 PM 43.0922 -87.7542 250° West 266 306 8,600 -1,306 Descending Chicago Center
Mon 12:35:43 PM 43.0669 -87.8494 250° West 264 304 7,300 -873 Descending Chicago Center
Mon 12:36:31 PM 43.0500 -87.9333 255° West 264 304 7,000 -278 Descending KMKE
Mon 12:37:31 PM 43.0167 -88.0167 241° Southwest 216 249 6,800 -600 Descending KMKE
Mon 12:38:31 PM 43.0000 -88.1000 255° West 218 251 5,800 -1,240 Descending KMKE
Mon 12:39:32 PM 42.9667 -88.1667 236° Southwest 211 243 4,300 -1,291 Descending KMKE
Mon 12:39:50 PM 42.9608 -88.1567 129° Southeast 225 259 4,100 -1,200 Descending Chicago Center
Mon 12:40:52 PM 42.8964 -88.1300 163° South 212 244 2,700 -875 Descending Chicago Center
Mon 12:41:26 PM 42.9000 -88.0833 84° East 208 239 2,700  Level KMKE

Login

Don't have an account? Register now (free) for customized features, flight alerts, and more!